Aeroporto :
LOGIN :

Iscrizione | Disclaimer

   EN    FR    IT 

 










Sommario :    VFR   VFR Marginale   IFR   IFR Intensivo   IFR Molto Intensivo
Visibilità : 
Base nubi : 
>= 8 km
>= 3000ft
5 / 8 km
1000 / 3000 ft
1500m / 5 km
500 / 1000 ft
800 / 1500m
200 / 500 ft
< 800m
< 200 ft
Simboli :   Temporali  Nebbia  Neve Forte  Precipitazioni Forti  Vento > 20 kt
SIGMETs :   Varie  Temporali  Ghiacco  Turbolenza  Onda orograficha  Ceneri Vulcaniche







- Altitudine del aeroporto : 3 ft
- Codice IATA : DHR


EHKD - Den Helder De Kooy

ULTIMO METAR :
  • 202057Z AUTO 09018KT 060V130 8000 -RA FEW008 BKN009 BKN011 FEW015CB 02/01 Q1010 GRN 08020KT 9999 OVC012 TEMPO 4000 -RASN SCT008 BKN010

METARs OBSOLETI :
  • 202047Z AUTO 09020KT 070V130 4100 -RA SCT007 BKN009 BKN011 FEW015CB 02/01 Q1010 GRN 08020KT 9999 OVC015 TEMPO 4000 -RASN SCT008 BKN010
  • 202025Z AUTO 09020KT 060V120 7000 -RA FEW007 SCT008 BKN009 FEW015CB 02/01 Q1010 GRN 08020KT 9999 OVC015 TEMPO 4000 -RASN SCT008 BKN010
  • 201955Z AUTO 09018KT 060V120 6000 -RADZ SCT007 BKN008 OVC010 02/01 Q1010 GRN 08020KT 9999 OVC015 TEMPO 4000 -RASN SCT008 BKN010
  • 201947Z AUTO 09019KT 050V120 6000 DZ SCT007 BKN008 BKN009 02/01 Q1010 GRN 08020KT 9999 OVC015 TEMPO 4000 -RASN SCT008 BKN015
  • 201925Z AUTO 09021G31KT 9000 -DZ SCT008 BKN009 BKN011 FEW015CB 02/01 Q1010 GRN 08020KT 9999 OVC015 TEMPO 4000 -RASN SCT008 BKN015
  • 201857Z AUTO 09020KT 060V120 9999 FEW009 BKN011 BKN013 03/01 Q1010 GRN 08020KT 9999 OVC020 TEMPO 4000 -RASN SCT010 BKN015
  • 201855Z AUTO 09020KT 050V120 9999 FEW009 SCT010 BKN012 FEW015CB 03/01 Q1010 GRN 08020KT 9999 OVC020 TEMPO 4000 -RA SCT010 BKN015
  • 201839Z AUTO 09022KT 060V120 9999 SCT012 BKN014 FEW015CB 03/01 Q1010 GRN 08020KT 9999 OVC020 TEMPO SCT010 BKN015
  • 201831Z AUTO 09022KT 9999 FEW012 BKN015CB 03/00 Q1010 WHT 08020KT 9999 OVC020 TEMPO SCT010 BKN015
  • 201825Z AUTO 09021KT 060V120 9999 FEW014 OVC016 03/00 Q1010 WHT 08020KT 9999 OVC020 TEMPO SCT010 BKN015
  • 201817Z AUTO 09020KT 060V120 9999 SCT014 OVC017 03/00 Q1010 GRN 08020G30KT 9999 OVC020 TEMPO SCT010 BKN015

TAF TAF EHKD
Valido dal 20 a 18 ore il 21 a 06 ore UTC


201700Z 2018/2106 08022KT 9999 BKN020
TEMPO 2019/2023 4000 RASN SCT010 BKN015
Nessun NOTAM noto per questo aeroporto.



MetMap, La meteo Aeronautica in un colpo d'occhio ! - Copyright ORBIFLY Dicembre 2007 - Disclaimer

ORBIFLY MET'MAP TEAM :

Programmazione e sviluppo : Alexandra Zaïnal
Concezione e sviluppo : Baudouin d'Aumeries
Co-Programmazione e sviluppo : Marc-Olivier Méhu
Supporto tecnico e logistico : Manuel Goepfert
Aiuto per la traduzione : Arnaldo La Scala

Contatto : metmap@orbifly.com




FONTI E CREDITI :

   NOAA